Time;durP1;ratioP1;P1;durP2;ratioP2;P2;SDS_P1;SDS_P2;PMS_P1;PMS_P2;Temp;Humidity;BMP_temperature;BMP_pressure;BME280_temperature;BME280_humidity;BME280_pressure;Samples;Min_cycle;Max_cycle;Signal;HPM_P1;HPM_P2
2024/02/27 00:01:52;;;;;;;86.80;46.90;;;;;;;4.84;100.00;98465.79;273276;1267;22530;-92
2024/02/27 00:08:00;;;;;;;95.90;48.40;;;;;;;4.71;100.00;98475.98;273414;1257;22301;-91
2024/02/27 00:14:11;;;;;;;100.40;52.70;;;;;;;4.60;100.00;98482.13;273417;1266;22443;-91
2024/02/27 00:20:20;;;;;;;81.30;42.70;;;;;;;4.58;100.00;98480.00;273342;1266;22924;-90
2024/02/27 00:26:23;;;;;;;98.30;51.10;;;;;;;4.51;100.00;98483.44;273380;1266;22267;-91
2024/02/27 00:32:28;;;;;;;98.60;50.20;;;;;;;4.45;100.00;98487.55;273387;1266;23136;-91
2024/02/27 00:38:34;;;;;;;102.70;53.70;;;;;;;4.41;100.00;98485.42;273426;1266;22456;-91
2024/02/27 00:44:45;;;;;;;103.90;54.60;;;;;;;4.33;100.00;98483.10;273293;1266;22503;-92
2024/02/27 00:51:00;;;;;;;96.20;52.10;;;;;;;4.26;100.00;98475.19;273283;1266;22306;-91
2024/02/27 00:57:16;;;;;;;107.70;55.80;;;;;;;4.26;100.00;98472.25;273394;1266;26143;-91
2024/02/27 01:03:22;;;;;;;104.10;57.70;;;;;;;4.25;100.00;98473.35;273328;1266;23139;-91
2024/02/27 01:09:33;;;;;;;106.20;54.70;;;;;;;4.19;100.00;98475.38;273291;1265;23734;-92
2024/02/27 01:15:53;;;;;;;113.00;57.60;;;;;;;4.19;100.00;98481.09;273384;1265;22436;-92
2024/02/27 01:21:59;;;;;;;99.70;51.50;;;;;;;4.19;100.00;98472.80;273436;1265;22503;-91
2024/02/27 01:28:06;;;;;;;93.50;50.70;;;;;;;4.35;100.00;98464.27;273203;1265;22344;-93
2024/02/27 01:34:12;;;;;;;93.90;50.30;;;;;;;4.56;100.00;98461.34;273433;1266;22446;-91
2024/02/27 01:40:34;;;;;;;88.60;43.80;;;;;;;4.49;100.00;98458.52;273354;1266;22352;-91
2024/02/27 01:46:42;;;;;;;75.40;40.20;;;;;;;4.31;100.00;98461.69;273319;1265;22352;-92
2024/02/27 01:52:51;;;;;;;83.50;40.80;;;;;;;4.32;100.00;98458.77;273426;1266;23593;-90
2024/02/27 01:59:01;;;;;;;77.30;40.20;;;;;;;4.41;100.00;98459.57;273406;1265;22446;-91
2024/02/27 02:05:09;;;;;;;72.70;38.90;;;;;;;4.59;100.00;98468.01;273441;1265;22317;-92
2024/02/27 02:11:19;;;;;;;74.70;38.60;;;;;;;4.59;100.00;98481.34;273447;1265;22382;-91
2024/02/27 02:17:23;;;;;;;68.60;36.40;;;;;;;4.43;100.00;98492.45;273425;1266;22236;-93
2024/02/27 02:23:29;;;;;;;72.10;36.80;;;;;;;4.40;100.00;98501.56;273416;1266;22274;-90
2024/02/27 02:29:37;;;;;;;83.70;42.70;;;;;;;4.39;100.00;98502.64;273416;1266;22274;-92
2024/02/27 02:38:24;;;;;;;78.30;44.20;;;;;;;4.43;100.00;98510.02;265556;1301;546466;-85
2024/02/27 02:44:25;;;;;;;69.80;37.90;;;;;;;4.41;100.00;98514.55;271809;1279;22443;-86
2024/02/27 02:50:29;;;;;;;81.70;45.50;;;;;;;4.36;100.00;98517.66;271978;1278;139357;-85
2024/02/27 02:57:42;;;;;;;81.80;44.30;;;;;;;4.32;100.00;98518.78;272347;1274;22249;-84
2024/02/27 03:03:51;;;;;;;80.80;45.30;;;;;;;4.25;100.00;98522.05;269426;1277;22402;-84
2024/02/27 03:10:13;;;;;;;85.60;45.60;;;;;;;4.16;100.00;98530.77;271895;1277;22413;-84
2024/02/27 03:16:19;;;;;;;88.50;48.50;;;;;;;4.09;100.00;98532.36;273073;1272;22968;-85
2024/02/27 03:22:38;;;;;;;78.20;43.60;;;;;;;4.09;100.00;98537.23;273919;1265;22263;-85
2024/02/27 03:29:20;;;;;;;83.50;46.30;;;;;;;4.04;100.00;98553.48;274064;1266;22213;-85
2024/02/27 03:36:05;;;;;;;93.80;50.80;;;;;;;4.08;100.00;98557.08;274014;1266;22368;-84
2024/02/27 03:42:15;;;;;;;94.70;51.40;;;;;;;4.16;100.00;98556.32;273992;1265;22214;-84
2024/02/27 03:48:22;;;;;;;92.70;49.00;;;;;;;4.27;100.00;98562.54;274088;1265;22456;-84
2024/02/27 03:54:30;;;;;;;92.80;50.20;;;;;;;4.37;100.00;98565.30;274094;1266;22410;-85
2024/02/27 04:00:36;;;;;;;82.80;47.00;;;;;;;4.43;100.00;98563.93;274122;1265;22339;-85
2024/02/27 04:06:37;;;;;;;86.80;43.70;;;;;;;4.48;100.00;98569.55;273974;1253;22180;-85
2024/02/27 04:12:38;;;;;;;86.70;47.40;;;;;;;4.54;100.00;98578.40;273913;1265;22397;-85
2024/02/27 04:18:57;;;;;;;91.70;48.60;;;;;;;4.64;100.00;98578.23;274084;1268;23757;-84
2024/02/27 04:25:48;;;;;;;76.10;43.70;;;;;;;4.75;100.00;98584.55;274005;1266;22405;-84
2024/02/27 04:33:16;;;;;;;86.10;47.00;;;;;;;4.79;100.00;98578.70;273703;1266;22380;-85
2024/02/27 04:39:58;;;;;;;86.30;46.80;;;;;;;4.85;100.00;98571.88;274059;1266;22241;-84
2024/02/27 04:46:03;;;;;;;84.70;45.00;;;;;;;4.87;100.00;98567.04;274177;1266;23131;-85
2024/02/27 04:52:05;;;;;;;84.80;46.40;;;;;;;4.89;100.00;98570.67;273830;1266;24164;-85
2024/02/27 04:58:08;;;;;;;77.70;43.80;;;;;;;4.89;100.00;98571.91;274006;1266;22452;-85
2024/02/27 05:04:09;;;;;;;77.80;43.30;;;;;;;4.86;100.00;98579.42;272883;1266;25445;-85
2024/02/27 05:10:15;;;;;;;85.20;45.00;;;;;;;4.87;100.00;98581.23;270826;1265;23826;-85
2024/02/27 05:16:16;;;;;;;84.60;45.30;;;;;;;4.89;100.00;98584.01;270617;1265;22519;-84
2024/02/27 05:22:17;;;;;;;95.60;47.80;;;;;;;4.90;100.00;98589.84;272884;1265;22445;-85
2024/02/27 05:29:00;;;;;;;86.20;44.80;;;;;;;4.94;100.00;98584.74;273998;1266;22248;-85
2024/02/27 05:35:25;;;;;;;92.70;51.20;;;;;;;4.99;100.00;98598.59;273855;1265;22177;-85
2024/02/27 05:41:26;;;;;;;88.60;47.20;;;;;;;5.06;100.00;98599.02;273591;1266;22271;-85
2024/02/27 05:47:27;;;;;;;105.10;52.80;;;;;;;5.13;100.00;98604.63;272533;1266;22567;-85
2024/02/27 05:53:56;;;;;;;89.00;50.60;;;;;;;5.18;100.00;98604.99;271686;1267;22249;-86
2024/02/27 06:00:26;;;;;;;93.00;50.50;;;;;;;5.22;100.00;98610.47;271374;1266;22393;-85
2024/02/27 06:06:54;;;;;;;101.60;53.30;;;;;;;5.25;100.00;98620.61;274124;1266;22258;-86
2024/02/27 06:12:55;;;;;;;87.70;48.90;;;;;;;5.31;100.00;98624.88;272450;1266;25331;-85
2024/02/27 06:18:56;;;;;;;88.90;48.30;;;;;;;5.36;100.00;98640.51;272087;1266;23647;-86
2024/02/27 06:25:29;;;;;;;87.70;49.30;;;;;;;5.43;100.00;98632.92;272526;1266;22383;-86
2024/02/27 06:31:32;;;;;;;91.50;51.10;;;;;;;5.54;100.00;98635.61;273152;1265;22546;-85
2024/02/27 06:37:36;;;;;;;90.80;50.90;;;;;;;5.67;100.00;98636.27;271800;1266;22536;-85
2024/02/27 06:43:40;;;;;;;102.00;55.20;;;;;;;5.80;100.00;98639.55;271500;1266;22628;-86
2024/02/27 06:49:47;;;;;;;98.90;54.50;;;;;;;5.92;100.00;98644.19;271494;1267;22528;-86
2024/02/27 06:55:48;;;;;;;97.30;53.60;;;;;;;6.13;100.00;98652.69;271425;1265;22595;-86
2024/02/27 07:01:49;;;;;;;89.10;49.70;;;;;;;6.26;100.00;98660.03;271221;1266;22685;-87
2024/02/27 07:08:10;;;;;;;92.90;51.20;;;;;;;6.36;100.00;98672.41;273507;1267;22503;-87
2024/02/27 07:14:13;;;;;;;86.30;50.40;;;;;;;6.51;100.00;98676.52;273259;1265;22397;-86
2024/02/27 07:20:42;;;;;;;89.20;48.60;;;;;;;6.67;100.00;98674.30;273737;1265;22186;-86
2024/02/27 07:26:47;;;;;;;86.90;50.90;;;;;;;6.89;100.00;98683.80;273897;1263;23727;-86
2024/02/27 07:33:17;;;;;;;86.00;48.70;;;;;;;7.07;100.00;98685.10;273972;1266;22208;-86
2024/02/27 07:39:51;;;;;;;91.00;50.40;;;;;;;7.21;100.00;98686.14;273600;1266;22462;-86
2024/02/27 07:46:18;;;;;;;81.30;47.30;;;;;;;7.32;100.00;98689.30;273977;1273;22218;-86
2024/02/27 07:52:44;;;;;;;82.70;48.10;;;;;;;7.53;100.00;98692.66;273923;1266;22378;-87
2024/02/27 07:59:01;;;;;;;91.40;51.30;;;;;;;7.76;100.00;98691.82;273720;1265;22206;-88
2024/02/27 08:05:04;;;;;;;81.40;45.10;;;;;;;8.00;100.00;98695.87;273703;1267;23728;-86
2024/02/27 08:11:31;;;;;;;73.20;40.90;;;;;;;8.25;100.00;98699.02;273760;1266;22294;-86
2024/02/27 08:17:54;;;;;;;78.50;44.90;;;;;;;8.56;100.00;98704.27;273883;1266;22387;-87
2024/02/27 08:23:58;;;;;;;65.20;37.70;;;;;;;8.90;100.00;98697.39;274106;1265;22265;-86
2024/02/27 08:30:04;;;;;;;78.00;39.10;;;;;;;9.23;100.00;98683.59;274118;1273;23559;-86
2024/02/27 08:36:29;;;;;;;64.20;36.80;;;;;;;9.63;100.00;98689.17;268814;1270;5378293;-86
2024/02/27 08:42:46;;;;;;;59.40;35.60;;;;;;;10.17;100.00;98688.42;272033;1274;22286;-87
2024/02/27 08:48:47;;;;;;;53.30;32.90;;;;;;;10.67;100.00;98689.02;271818;1278;23319;-87
2024/02/27 09:10:11;;;;;;;46.00;26.70;;;;;;;12.34;100.00;98673.52;272139;1273;23590;-87
2024/02/27 09:16:20;;;;;;;43.30;27.20;;;;;;;12.82;100.00;98673.45;272685;1273;22203;-87
2024/02/27 09:22:26;;;;;;;48.70;27.10;;;;;;;13.21;100.00;98670.10;272893;1274;22198;-87
2024/02/27 09:29:23;;;;;;;37.60;24.50;;;;;;;13.54;100.00;98665.69;272966;1273;22084;-88
2024/02/27 09:36:09;;;;;;;34.30;23.50;;;;;;;14.29;100.00;98667.88;272965;1273;23338;-87
2024/02/27 09:42:19;;;;;;;33.80;22.60;;;;;;;15.03;100.00;98668.39;272621;1272;23349;-87
2024/02/27 09:48:29;;;;;;;31.10;21.00;;;;;;;15.35;100.00;98669.65;272102;1272;22381;-89
2024/02/27 09:54:31;;;;;;;41.60;22.20;;;;;;;15.84;100.00;98677.80;271992;1272;22366;-88
2024/02/27 10:00:33;;;;;;;36.10;23.10;;;;;;;16.48;100.00;98677.23;271615;1272;22507;-88
2024/02/27 10:06:35;;;;;;;41.80;23.40;;;;;;;16.92;99.57;98670.61;271926;1273;22488;-87
2024/02/27 10:12:37;;;;;;;38.10;22.80;;;;;;;17.25;97.22;98668.91;272177;1271;22407;-88
2024/02/27 10:18:38;;;;;;;32.70;20.60;;;;;;;17.43;93.70;98671.86;271993;1272;22888;-87
2024/02/27 10:24:44;;;;;;;44.80;23.90;;;;;;;17.20;92.62;98675.80;272722;1270;22383;-88
2024/02/27 10:30:45;;;;;;;33.80;21.10;;;;;;;17.20;93.75;98676.52;272161;1272;22228;-88
2024/02/27 10:36:57;;;;;;;32.10;19.00;;;;;;;17.63;93.76;98671.48;272292;1272;23058;-88
2024/02/27 10:42:58;;;;;;;30.10;18.20;;;;;;;18.39;93.08;98668.48;272224;1273;23800;-88
2024/02/27 10:48:59;;;;;;;26.40;17.30;;;;;;;19.25;92.07;98666.98;272548;1272;22506;-88
2024/02/27 10:55:04;;;;;;;34.70;17.70;;;;;;;19.47;89.23;98664.85;272020;1272;22335;-89
2024/02/27 11:01:31;;;;;;;27.40;16.00;;;;;;;19.59;88.38;98659.56;272546;1272;23034;-88
2024/02/27 11:07:32;;;;;;;22.70;15.50;;;;;;;19.93;86.47;98653.60;272686;1272;22222;-88
2024/02/27 11:13:36;;;;;;;23.80;14.50;;;;;;;19.80;82.95;98656.70;272642;1272;22764;-88
2024/02/27 11:19:44;;;;;;;20.10;13.40;;;;;;;19.49;81.65;98653.44;272150;1272;23582;-88
2024/02/27 11:25:45;;;;;;;20.50;14.20;;;;;;;19.11;80.08;98647.98;272203;1272;22200;-89
2024/02/27 11:31:46;;;;;;;23.30;14.20;;;;;;;18.72;79.52;98652.38;272314;1272;22325;-89
2024/02/27 11:37:48;;;;;;;27.20;14.80;;;;;;;18.47;78.78;98652.41;272294;1272;23463;-88
2024/02/27 11:44:18;;;;;;;27.60;15.30;;;;;;;18.31;77.88;98653.44;272896;1272;22871;-88
2024/02/27 11:50:37;;;;;;;25.90;15.10;;;;;;;18.21;77.87;98655.96;272589;1272;22304;-88
2024/02/27 11:56:41;;;;;;;23.40;15.80;;;;;;;18.54;77.28;98659.42;272279;1270;22324;-88
2024/02/27 12:02:50;;;;;;;25.10;15.60;;;;;;;18.72;75.29;98655.22;271970;1272;23309;-88
2024/02/27 12:08:53;;;;;;;23.40;13.80;;;;;;;18.70;74.11;98651.25;271847;1272;22378;-88
2024/02/27 12:14:54;;;;;;;20.30;12.60;;;;;;;18.65;73.67;98649.64;272150;1272;22346;-88
2024/02/27 12:20:56;;;;;;;19.80;13.50;;;;;;;18.55;73.48;98653.15;272208;1272;22191;-88
2024/02/27 12:26:57;;;;;;;18.50;12.80;;;;;;;18.46;73.10;98648.58;272391;1266;22436;-87
2024/02/27 12:33:02;;;;;;;17.90;12.70;;;;;;;18.39;73.02;98639.56;271556;1272;23073;-89
2024/02/27 12:39:13;;;;;;;20.30;13.40;;;;;;;18.40;72.61;98637.80;269994;1272;22573;-88
2024/02/27 12:45:15;;;;;;;17.60;12.30;;;;;;;18.48;72.32;98639.17;271483;1272;22339;-88
2024/02/27 12:51:17;;;;;;;15.80;12.30;;;;;;;18.60;71.57;98638.19;271253;1272;22572;-88
2024/02/27 12:57:20;;;;;;;20.50;11.80;;;;;;;18.68;71.38;98637.05;270986;1272;22565;-86
2024/02/27 13:03:24;;;;;;;15.30;10.60;;;;;;;18.76;70.35;98639.52;270821;1272;22478;-88
2024/02/27 13:09:27;;;;;;;14.30;10.60;;;;;;;18.78;69.80;98634.63;271943;1272;22220;-88
2024/02/27 13:15:28;;;;;;;14.30;10.20;;;;;;;18.73;69.57;98633.27;270832;1272;22989;-88
2024/02/27 13:21:30;;;;;;;16.60;9.10;;;;;;;18.56;67.97;98637.83;271424;1272;22416;-88
2024/02/27 13:50:28;;;;;;;12.20;6.10;;;;;;;18.52;61.31;98636.85;273208;1272;22404;-88
2024/02/27 13:56:31;;;;;;;7.00;5.00;;;;;;;18.46;59.68;98634.06;271451;1272;22526;-88
2024/02/27 14:02:35;;;;;;;13.40;4.80;;;;;;;18.37;58.00;98631.33;271096;1272;22819;-88
2024/02/27 14:08:36;;;;;;;13.70;5.70;;;;;;;18.30;56.86;98630.48;271570;1272;22658;-88
2024/02/27 14:14:38;;;;;;;12.40;6.00;;;;;;;18.22;57.03;98630.15;270659;1272;22545;-88
2024/02/27 14:20:40;;;;;;;9.80;5.90;;;;;;;18.19;56.99;98630.39;271041;1272;22581;-88
2024/02/27 14:26:41;;;;;;;15.00;5.80;;;;;;;18.15;56.65;98634.60;270248;1272;22623;-88
2024/02/27 14:32:43;;;;;;;17.50;5.90;;;;;;;18.08;56.36;98639.13;271107;1272;22706;-88
2024/02/27 14:38:44;;;;;;;13.20;5.70;;;;;;;17.94;55.78;98645.88;271595;1272;22685;-87
2024/02/27 14:44:45;;;;;;;12.60;5.20;;;;;;;17.78;56.61;98645.88;271544;1272;22522;-88
2024/02/27 14:50:52;;;;;;;12.50;5.20;;;;;;;17.65;56.66;98648.69;271756;1272;198525;-88
2024/02/27 14:56:54;;;;;;;15.20;6.20;;;;;;;17.55;56.51;98647.26;271753;1272;25421;-88
2024/02/27 15:03:45;;;;;;;16.20;6.60;;;;;;;17.43;56.58;98649.33;271243;1272;22267;-87
2024/02/27 15:09:46;;;;;;;16.00;6.70;;;;;;;17.31;56.79;98649.02;271234;1272;22711;-87
2024/02/27 15:15:48;;;;;;;19.40;7.50;;;;;;;17.21;57.12;98655.64;272011;1272;22382;-88
2024/02/27 15:21:52;;;;;;;10.70;5.60;;;;;;;17.11;57.18;98662.16;271857;1272;22175;-87
2024/02/27 15:27:53;;;;;;;18.70;7.50;;;;;;;16.99;57.18;98665.02;272277;1272;22391;-88
2024/02/27 15:33:55;;;;;;;13.00;6.40;;;;;;;16.85;57.24;98666.79;272222;1272;22168;-88
2024/02/27 15:39:56;;;;;;;14.20;6.60;;;;;;;16.73;57.40;98670.02;272070;1270;23688;-87
2024/02/27 15:45:59;;;;;;;14.30;6.70;;;;;;;16.58;57.53;98673.85;270795;1272;23071;-88
2024/02/27 15:52:01;;;;;;;15.30;6.80;;;;;;;16.37;57.98;98677.67;272342;1272;22262;-86
2024/02/27 15:58:02;;;;;;;17.90;8.50;;;;;;;16.12;58.47;98686.05;271460;1272;23391;-87
2024/02/27 16:04:31;;;;;;;16.10;8.10;;;;;;;15.83;58.97;98684.14;270987;1271;22557;-88
2024/02/27 16:10:37;;;;;;;18.10;8.40;;;;;;;15.47;59.75;98688.02;270867;1260;23764;-87
2024/02/27 16:16:39;;;;;;;22.30;9.10;;;;;;;15.20;60.43;98692.04;271983;1272;22208;-87
2024/02/27 16:22:40;;;;;;;22.80;11.10;;;;;;;14.95;61.40;98698.17;271970;1272;22342;-87
2024/02/27 16:28:42;;;;;;;22.00;9.80;;;;;;;14.61;62.57;98704.52;272134;1272;22419;-87
2024/02/27 16:34:43;;;;;;;30.50;16.10;;;;;;;14.30;63.61;98708.63;271011;1272;22572;-87
2024/02/27 16:40:44;;;;;;;50.30;19.40;;;;;;;14.02;64.42;98715.44;271497;1272;22236;-88
2024/02/27 16:46:46;;;;;;;39.60;17.70;;;;;;;13.81;65.29;98724.84;272373;1272;22469;-87
2024/02/27 16:52:48;;;;;;;23.90;11.10;;;;;;;13.62;66.32;98731.24;272376;1272;23791;-87
2024/02/27 16:58:52;;;;;;;29.10;12.30;;;;;;;13.34;67.16;98736.95;272367;1272;22940;-87
2024/02/27 17:04:53;;;;;;;32.10;14.10;;;;;;;13.14;67.94;98746.84;272397;1272;22411;-87
2024/02/27 17:10:55;;;;;;;42.20;18.70;;;;;;;13.05;68.81;98755.52;271679;1272;22589;-87
2024/02/27 17:16:56;;;;;;;38.90;17.70;;;;;;;13.02;69.56;98759.05;272125;1272;22197;-88
2024/02/27 17:22:58;;;;;;;47.60;21.90;;;;;;;12.98;70.08;98763.05;272469;1268;22415;-88
2024/02/27 17:29:00;;;;;;;36.90;17.50;;;;;;;12.93;70.64;98764.54;272231;1272;22363;-87
2024/02/27 17:35:01;;;;;;;26.80;14.60;;;;;;;12.86;71.30;98768.55;272273;1272;23534;-88
2024/02/27 17:41:03;;;;;;;26.50;15.20;;;;;;;12.78;71.95;98768.95;272461;1272;23767;-87
2024/02/27 17:47:24;;;;;;;33.70;16.20;;;;;;;12.69;72.44;98768.34;271197;1265;22543;-87
2024/02/27 17:53:25;;;;;;;44.20;19.50;;;;;;;12.57;73.10;98770.70;271835;1272;22391;-87
2024/02/27 17:59:51;;;;;;;43.70;21.10;;;;;;;12.44;73.90;98775.25;271606;1272;22300;-87
2024/02/27 18:05:52;;;;;;;40.10;20.60;;;;;;;12.32;74.51;98778.14;272846;1271;22603;-87
2024/02/27 18:11:57;;;;;;;39.10;20.40;;;;;;;12.17;75.50;98783.23;271995;1272;22446;-87
2024/02/27 18:18:00;;;;;;;41.10;20.40;;;;;;;11.98;76.29;98789.78;272287;1272;22377;-86
2024/02/27 18:24:02;;;;;;;50.70;25.10;;;;;;;11.84;76.80;98793.91;272054;1269;22557;-87
2024/02/27 18:30:05;;;;;;;50.30;26.30;;;;;;;11.76;77.00;98796.85;272004;1272;22579;-87
2024/02/27 18:36:13;;;;;;;42.00;22.30;;;;;;;11.74;77.73;98800.77;271560;1273;22351;-87
2024/02/27 18:42:14;;;;;;;45.40;24.30;;;;;;;11.63;78.69;98802.91;271743;1272;22833;-87
2024/02/27 18:48:15;;;;;;;51.30;26.10;;;;;;;11.53;79.22;98804.50;270147;1272;22985;-86
2024/02/27 18:54:18;;;;;;;53.40;25.30;;;;;;;11.44;79.77;98803.21;272920;1272;22434;-87
2024/02/27 19:00:20;;;;;;;55.60;28.80;;;;;;;11.37;80.36;98809.98;271527;1272;22330;-87
2024/02/27 19:06:47;;;;;;;43.40;26.40;;;;;;;11.31;81.28;98813.86;271835;1272;22225;-86
2024/02/27 19:19:34;;;;;;;50.70;25.90;;;;;;;11.23;83.32;98825.09;272180;1272;22298;-87
2024/02/27 19:25:36;;;;;;;61.20;30.60;;;;;;;11.15;84.82;98828.27;272255;1272;22485;-87
2024/02/27 19:31:37;;;;;;;60.10;30.90;;;;;;;11.05;86.14;98830.16;272216;1272;22155;-87
2024/02/27 19:37:38;;;;;;;56.50;30.80;;;;;;;11.00;87.49;98825.17;271365;1272;22321;-89
2024/02/27 19:43:41;;;;;;;61.80;30.60;;;;;;;10.94;87.62;98833.13;272154;1272;22236;-87
2024/02/27 19:49:42;;;;;;;55.30;30.30;;;;;;;10.86;88.33;98841.60;272243;1272;22209;-89
2024/02/27 19:55:44;;;;;;;60.50;30.70;;;;;;;10.78;88.63;98847.73;272178;1272;23048;-87
2024/02/27 20:01:46;;;;;;;58.50;29.20;;;;;;;10.70;89.68;98850.86;272271;1272;22176;-88
2024/02/27 20:07:48;;;;;;;56.70;30.60;;;;;;;10.65;90.31;98850.50;272359;1272;22601;-87
2024/02/27 20:14:38;;;;;;;59.30;32.60;;;;;;;10.65;90.89;98851.66;271965;1272;22564;-87
2024/02/27 20:20:43;;;;;;;45.90;27.00;;;;;;;10.63;91.94;98860.48;272293;1272;22399;-87
2024/02/27 20:27:13;;;;;;;60.70;27.60;;;;;;;10.55;91.43;98868.33;272841;1266;22323;-87
2024/02/27 20:33:59;;;;;;;64.30;33.30;;;;;;;10.44;92.47;98877.60;272182;1273;22307;-87
2024/02/27 20:40:47;;;;;;;64.40;33.50;;;;;;;10.41;93.61;98883.52;272121;1272;22727;-87
2024/02/27 20:46:53;;;;;;;60.80;31.90;;;;;;;10.43;94.64;98884.33;272430;1273;22204;-87
2024/02/27 20:52:55;;;;;;;60.50;33.30;;;;;;;10.43;95.34;98893.63;272216;1272;22587;-87
2024/02/27 20:59:33;;;;;;;;;;;;;;;;;;;;;
2024/02/27 21:05:43;;;;;;;71.80;37.90;;;;;;;10.37;95.90;98900.52;272874;1271;22210;-87
2024/02/27 21:11:44;;;;;;;62.70;35.90;;;;;;;10.32;95.50;98908.60;272168;1272;22294;-87
2024/02/27 21:17:45;;;;;;;66.30;37.30;;;;;;;10.28;95.61;98909.58;272642;1272;22193;-86
2024/02/27 21:23:50;;;;;;;97.20;46.40;;;;;;;10.24;96.28;98912.18;272848;1270;22277;-86
2024/02/27 21:29:51;;;;;;;83.70;44.50;;;;;;;10.17;97.24;98921.49;272742;1273;22528;-86
2024/02/27 21:35:52;;;;;;;83.80;45.70;;;;;;;10.12;97.26;98921.81;272308;1272;22760;-87
2024/02/27 21:42:20;;;;;;;77.90;42.10;;;;;;;10.11;97.71;98919.06;272792;1272;22328;-86
2024/02/27 21:48:34;;;;;;;101.70;48.20;;;;;;;10.07;98.03;98919.48;272651;1274;22183;-86
2024/02/27 21:54:41;;;;;;;88.40;46.70;;;;;;;10.01;98.22;98921.50;272789;1272;22222;-87
2024/02/27 22:00:42;;;;;;;76.30;44.40;;;;;;;9.96;98.24;98928.23;272531;1272;22218;-87
2024/02/27 22:06:43;;;;;;;72.40;41.10;;;;;;;9.96;99.16;98936.75;272927;1273;22260;-86
2024/02/27 22:13:32;;;;;;;72.30;38.60;;;;;;;9.97;99.29;98939.19;272453;1274;22242;-87
2024/02/27 22:20:13;;;;;;;70.30;36.60;;;;;;;9.99;99.06;98941.88;272427;1272;22245;-86
2024/02/27 22:26:22;;;;;;;66.40;36.60;;;;;;;10.00;98.78;98940.09;272841;1275;22362;-87
2024/02/27 22:32:25;;;;;;;64.40;34.50;;;;;;;10.01;98.94;98935.64;272778;1272;24080;-87
2024/02/27 22:39:04;;;;;;;59.50;31.90;;;;;;;10.01;98.90;98935.56;272851;1274;22223;-86
2024/02/27 22:45:39;;;;;;;59.40;33.40;;;;;;;10.03;99.19;98940.42;272961;1272;23427;-87
2024/02/27 22:51:41;;;;;;;60.20;33.00;;;;;;;10.00;99.25;98940.48;272780;1272;22425;-86
2024/02/27 22:57:46;;;;;;;58.20;31.10;;;;;;;9.96;99.98;98939.66;271380;1272;23420;-85
2024/02/27 23:04:13;;;;;;;57.80;31.80;;;;;;;9.86;99.98;98941.78;272574;1272;22604;-86
2024/02/27 23:10:23;;;;;;;57.30;30.30;;;;;;;9.75;100.00;98937.25;272723;1272;22444;-86
2024/02/27 23:16:24;;;;;;;48.20;27.40;;;;;;;9.65;100.00;98938.06;272406;1272;22478;-86
2024/02/27 23:22:25;;;;;;;54.10;30.60;;;;;;;9.62;100.00;98943.23;272098;1272;22401;-86
2024/02/27 23:28:27;;;;;;;56.30;31.50;;;;;;;9.59;100.00;98947.42;271942;1270;23250;-85
2024/02/27 23:34:28;;;;;;;59.60;30.90;;;;;;;9.58;100.00;98944.61;272677;1272;22334;-85
2024/02/27 23:40:31;;;;;;;49.20;27.10;;;;;;;9.56;100.00;98950.74;272367;1272;22363;-87
2024/02/27 23:46:32;;;;;;;53.00;28.60;;;;;;;9.52;100.00;98947.42;272483;1272;22208;-86
2024/02/27 23:52:33;;;;;;;53.10;27.80;;;;;;;9.47;100.00;98949.14;272372;1271;22362;-85
2024/02/27 23:58:41;;;;;;;57.10;31.50;;;;;;;9.44;100.00;98947.08;272546;1272;22210;-86
